Time;durP1;ratioP1;P1;durP2;ratioP2;P2;SDS_P1;SDS_P2;PMS_P1;PMS_P2;Temp;Humidity;BMP_temperature;BMP_pressure;BME280_temperature;BME280_humidity;BME280_pressure;Samples;Min_cycle;Max_cycle;Signal;HPM_P1;HPM_P2
2021/08/21 00:00:30;;;;;;;10.20;5.00;;;;;;;13.21;92.77;95770.63;5109613;28;20047;-76
2021/08/21 00:03:00;;;;;;;7.65;4.20;;;;;;;13.23;93.12;95763.22;5104734;28;20311;-77
2021/08/21 00:05:26;;;;;;;10.35;4.55;;;;;;;13.21;93.37;95775.91;5109459;28;20040;-76
2021/08/21 00:07:52;;;;;;;10.27;4.45;;;;;;;13.18;92.48;95768.53;5111681;28;20658;-77
2021/08/21 00:10:17;;;;;;;11.85;4.85;;;;;;;13.14;93.58;95765.66;5108089;28;20039;-76
2021/08/21 00:12:43;;;;;;;14.18;4.57;;;;;;;13.24;92.62;95770.06;5107997;28;20040;-77
2021/08/21 00:15:12;;;;;;;7.75;4.35;;;;;;;13.21;92.23;95765.34;5112035;28;20047;-77
2021/08/21 00:17:38;;;;;;;8.88;4.63;;;;;;;13.28;91.65;95773.72;5109671;27;20102;-77
2021/08/21 00:20:06;;;;;;;6.40;3.92;;;;;;;13.19;91.99;95770.13;5113488;28;20036;-77
2021/08/21 00:22:31;;;;;;;9.00;4.38;;;;;;;13.11;92.26;95763.56;5111069;28;20039;-77
2021/08/21 00:24:57;;;;;;;8.10;4.47;;;;;;;13.03;92.74;95773.97;5113090;28;20138;-76
2021/08/21 00:27:25;;;;;;;9.00;4.15;;;;;;;12.98;92.58;95772.94;5109713;28;20035;-76
2021/08/21 00:29:52;;;;;;;10.57;4.10;;;;;;;13.08;92.21;95760.72;5103549;28;20055;-77
2021/08/21 00:32:17;;;;;;;7.57;4.30;;;;;;;13.00;92.41;95770.81;5104679;28;20032;-77
2021/08/21 00:34:43;;;;;;;8.80;4.82;;;;;;;13.03;92.19;95768.69;5112832;28;20047;-77
2021/08/21 00:37:09;;;;;;;10.82;4.57;;;;;;;13.00;91.67;95762.09;5110552;28;20031;-77
2021/08/21 00:39:36;;;;;;;7.03;3.97;;;;;;;13.06;91.64;95768.13;5111273;28;20048;-77
2021/08/21 00:42:02;;;;;;;7.75;4.57;;;;;;;13.03;90.87;95763.38;5109478;27;20069;-76
2021/08/21 00:44:29;;;;;;;7.18;4.13;;;;;;;12.98;91.01;95767.66;5113337;28;20040;-77
2021/08/21 00:46:54;;;;;;;10.70;4.32;;;;;;;12.88;91.89;95762.47;5110893;28;20101;-76
2021/08/21 00:49:20;;;;;;;8.82;4.18;;;;;;;12.78;92.46;95762.56;5101531;28;20040;-77
2021/08/21 00:51:45;;;;;;;9.63;4.30;;;;;;;12.81;92.57;95764.63;5099996;28;20043;-77
2021/08/21 00:54:11;;;;;;;8.82;4.10;;;;;;;12.80;92.52;95760.41;5112543;28;20698;-77
2021/08/21 00:56:36;;;;;;;8.68;4.63;;;;;;;12.69;93.66;95758.94;5110461;28;20568;-77
2021/08/21 00:59:02;;;;;;;7.65;4.53;;;;;;;12.77;92.88;95756.50;5111313;28;20039;-77
2021/08/21 01:01:28;;;;;;;7.07;4.03;;;;;;;12.72;93.56;95759.16;5111070;28;20044;-77
2021/08/21 01:03:54;;;;;;;12.70;5.20;;;;;;;12.77;93.18;95755.69;5111551;28;20036;-77
2021/08/21 01:06:19;;;;;;;11.20;4.65;;;;;;;12.72;93.07;95755.75;5110289;28;20042;-76
2021/08/21 01:08:45;;;;;;;8.20;4.25;;;;;;;12.65;93.11;95754.19;5111666;28;20059;-76
2021/08/21 01:11:10;;;;;;;8.90;4.57;;;;;;;12.67;93.24;95745.22;5107558;28;20035;-77
2021/08/21 01:13:37;;;;;;;8.82;4.25;;;;;;;12.76;92.58;95748.84;5112391;28;20108;-77
2021/08/21 01:16:03;;;;;;;8.23;4.22;;;;;;;12.69;92.29;95753.66;5111016;28;20835;-77
2021/08/21 01:18:29;;;;;;;10.52;4.57;;;;;;;12.60;92.37;95751.59;5110505;28;20118;-77
2021/08/21 01:20:55;;;;;;;10.77;4.47;;;;;;;12.44;92.79;95752.75;5095589;28;20040;-77
2021/08/21 01:23:21;;;;;;;8.57;4.40;;;;;;;12.44;92.79;95752.75;5109983;28;21320;-77
2021/08/21 01:25:46;;;;;;;8.55;4.22;;;;;;;12.38;93.71;95749.38;5092153;28;20417;-77
2021/08/21 01:28:12;;;;;;;9.25;4.30;;;;;;;12.33;93.46;95756.56;5106127;28;20051;-76
2021/08/21 01:30:39;;;;;;;10.50;4.50;;;;;;;12.30;93.67;95747.34;5112088;28;20035;-76
2021/08/21 01:33:05;;;;;;;10.20;5.20;;;;;;;12.41;93.55;95748.03;5098605;27;20044;-76
2021/08/21 01:35:31;;;;;;;8.20;4.35;;;;;;;12.39;92.78;95752.81;5110791;28;20047;-77
2021/08/21 01:37:56;;;;;;;8.27;3.90;;;;;;;12.36;92.79;95748.09;5108529;28;20040;-77
2021/08/21 01:40:22;;;;;;;8.38;4.00;;;;;;;12.38;92.84;95748.59;5112200;27;20047;-76
2021/08/21 01:42:48;;;;;;;7.60;4.57;;;;;;;12.33;92.81;95751.28;5110110;28;20039;-76
2021/08/21 01:45:14;;;;;;;9.07;4.45;;;;;;;12.45;92.14;95749.84;5100735;28;20047;-77
2021/08/21 01:47:43;;;;;;;9.77;4.15;;;;;;;12.32;92.90;95749.69;5103185;28;20040;-77
2021/08/21 01:50:14;;;;;;;6.60;4.07;;;;;;;12.32;92.87;95744.41;5112329;28;20096;-77
2021/08/21 01:52:44;;;;;;;8.13;4.28;;;;;;;12.27;92.93;95743.38;5105123;28;20036;-77
2021/08/21 01:55:10;;;;;;;8.43;4.15;;;;;;;12.22;92.87;95740.78;5102472;28;20066;-75
2021/08/21 01:57:39;;;;;;;17.63;4.63;;;;;;;12.18;92.66;95742.38;5102470;28;20035;-77
2021/08/21 02:00:05;;;;;;;8.18;4.15;;;;;;;12.15;93.41;95742.16;5102490;28;20142;-76
2021/08/21 02:02:31;;;;;;;7.35;3.92;;;;;;;12.09;93.63;95742.16;5104200;28;20072;-75
2021/08/21 02:04:56;;;;;;;9.68;4.90;;;;;;;12.12;93.64;95738.19;5095535;28;20550;-77
2021/08/21 02:07:22;;;;;;;9.75;4.60;;;;;;;12.07;93.64;95743.53;5110112;28;20092;-77
2021/08/21 02:09:47;;;;;;;10.25;4.15;;;;;;;12.12;93.56;95735.56;5111181;28;20047;-75
2021/08/21 02:12:16;;;;;;;8.45;4.35;;;;;;;12.09;93.47;95741.38;5100704;28;20127;-75
2021/08/21 02:14:41;;;;;;;10.80;4.30;;;;;;;12.11;92.97;95740.06;5106203;28;20085;-77
2021/08/21 02:17:07;;;;;;;9.00;4.20;;;;;;;12.13;92.83;95742.41;5099150;28;20443;-77
2021/08/21 02:19:32;;;;;;;9.38;4.07;;;;;;;12.16;92.79;95741.88;5108954;28;20088;-77
2021/08/21 02:22:00;;;;;;;8.07;4.78;;;;;;;12.13;92.75;95750.34;5109468;28;20098;-77
2021/08/21 02:24:26;;;;;;;11.98;4.13;;;;;;;12.01;93.22;95744.59;5110449;28;20476;-77
2021/08/21 02:26:58;;;;;;;8.40;4.43;;;;;;;11.94;93.02;95745.69;5109421;28;20132;-77
2021/08/21 02:29:24;;;;;;;7.78;4.55;;;;;;;11.88;93.76;95746.75;5090568;28;20044;-77
2021/08/21 02:31:50;;;;;;;9.40;4.47;;;;;;;11.88;93.69;95746.75;5092705;28;20778;-77
2021/08/21 02:34:15;;;;;;;7.40;4.18;;;;;;;12.00;93.94;95754.34;5110689;28;20044;-76
2021/08/21 02:36:42;;;;;;;8.60;4.43;;;;;;;11.98;93.25;95756.47;5109728;28;20037;-76
2021/08/21 02:39:09;;;;;;;6.22;4.10;;;;;;;11.96;93.55;95754.09;5108480;28;20043;-76
2021/08/21 02:41:35;;;;;;;9.50;4.47;;;;;;;11.85;94.11;95747.28;5090394;28;20036;-77
2021/08/21 02:44:00;;;;;;;9.40;4.57;;;;;;;11.86;94.10;95743.56;5110503;28;20457;-77
2021/08/21 02:46:26;;;;;;;10.10;4.40;;;;;;;11.88;94.02;95745.94;5090684;28;20047;-76
2021/08/21 02:48:52;;;;;;;8.23;4.07;;;;;;;11.84;93.52;95740.44;5108650;28;20039;-76
2021/08/21 02:51:18;;;;;;;6.78;4.07;;;;;;;11.86;93.93;95743.56;5110262;28;20040;-77
2021/08/21 02:53:43;;;;;;;10.18;4.47;;;;;;;11.85;94.06;95736.75;5106910;28;20557;-76
2021/08/21 02:56:09;;;;;;;7.53;4.43;;;;;;;11.78;94.18;95737.03;5109111;28;20568;-77
2021/08/21 02:58:35;;;;;;;8.43;4.47;;;;;;;11.79;94.26;95732.53;5108486;28;20086;-76
2021/08/21 03:01:00;;;;;;;6.78;4.25;;;;;;;11.73;94.68;95733.63;5109818;28;20060;-77
2021/08/21 03:03:26;;;;;;;8.75;4.57;;;;;;;11.75;94.80;95732.31;5105273;28;20036;-76
2021/08/21 03:05:51;;;;;;;7.90;4.07;;;;;;;11.77;94.09;95737.31;5111526;28;20040;-77
2021/08/21 03:08:17;;;;;;;6.93;4.10;;;;;;;11.81;94.43;95740.19;5108282;28;20043;-77
2021/08/21 03:10:42;;;;;;;8.38;4.50;;;;;;;11.71;93.40;95735.72;5110102;28;20050;-77
2021/08/21 03:13:08;;;;;;;6.32;4.22;;;;;;;11.77;93.37;95739.94;5107898;28;20541;-76
2021/08/21 03:15:33;;;;;;;9.73;4.40;;;;;;;11.77;93.51;95739.94;5105734;28;20494;-77
2021/08/21 03:17:59;;;;;;;9.82;4.72;;;;;;;11.74;93.74;95741.25;5100126;28;20078;-77
2021/08/21 03:20:26;;;;;;;9.60;4.25;;;;;;;11.77;93.19;95746.00;5110288;28;20040;-76
2021/08/21 03:22:53;;;;;;;7.40;4.35;;;;;;;11.75;93.30;95744.69;5105270;28;20130;-76
2021/08/21 03:25:19;;;;;;;11.00;4.82;;;;;;;11.70;93.70;95750.00;5108901;28;20036;-77
2021/08/21 03:27:44;;;;;;;6.30;3.97;;;;;;;11.76;93.31;95748.91;5108192;28;20039;-77
2021/08/21 03:30:10;;;;;;;7.28;4.40;;;;;;;11.80;93.20;95749.94;5108188;28;20070;-77
2021/08/21 03:32:36;;;;;;;9.68;4.45;;;;;;;11.85;93.01;95741.22;5100639;28;20036;-77
2021/08/21 03:35:02;;;;;;;7.90;4.43;;;;;;;11.88;92.84;95744.13;5100418;28;20451;-77
2021/08/21 03:37:28;;;;;;;8.15;4.22;;;;;;;11.72;93.19;95737.31;5108003;28;20035;-77
2021/08/21 03:39:54;;;;;;;7.03;4.38;;;;;;;11.63;93.86;95741.59;5111996;28;20061;-77
2021/08/21 03:42:19;;;;;;;8.45;4.55;;;;;;;11.50;94.52;95740.31;5094636;28;20044;-77
2021/08/21 03:44:45;;;;;;;7.18;4.28;;;;;;;11.44;95.39;95752.72;5108388;28;20040;-76
2021/08/21 03:47:11;;;;;;;7.65;4.47;;;;;;;11.35;96.24;95749.03;5108189;28;20047;-77
2021/08/21 03:49:37;;;;;;;8.73;4.47;;;;;;;11.40;95.39;95756.94;5105626;28;20046;-77
2021/08/21 03:52:03;;;;;;;8.05;4.63;;;;;;;11.45;94.71;95749.03;5109596;28;20526;-77
2021/08/21 03:54:29;;;;;;;9.80;4.97;;;;;;;11.59;94.05;95750.03;5103797;28;20048;-77
2021/08/21 03:56:54;;;;;;;7.85;4.72;;;;;;;11.65;93.95;95753.44;5104460;28;20036;-76
2021/08/21 03:59:20;;;;;;;8.18;4.43;;;;;;;11.63;93.99;95754.75;5112169;28;20044;-76
2021/08/21 04:01:45;;;;;;;8.35;5.18;;;;;;;11.68;93.58;95746.81;5110361;28;20055;-77
2021/08/21 04:04:11;;;;;;;6.93;4.78;;;;;;;11.55;94.09;95754.25;5109202;28;20126;-77
2021/08/21 04:06:40;;;;;;;7.07;4.18;;;;;;;11.54;94.44;95752.69;5107717;28;20058;-77
2021/08/21 04:09:06;;;;;;;7.05;4.13;;;;;;;11.60;94.50;95751.59;5103335;28;20044;-77
2021/08/21 04:11:32;;;;;;;7.53;4.65;;;;;;;11.54;94.01;95747.41;5109417;28;20408;-77
2021/08/21 04:13:58;;;;;;;10.15;4.43;;;;;;;11.42;94.36;95744.28;5097245;28;20051;-77
2021/08/21 04:16:24;;;;;;;6.90;4.28;;;;;;;11.32;94.63;95749.56;5107535;28;20507;-77
2021/08/21 04:18:49;;;;;;;8.07;4.25;;;;;;;11.33;95.03;95745.91;5107167;28;20053;-76
2021/08/21 04:21:15;;;;;;;9.27;4.70;;;;;;;11.22;95.82;95740.66;5101698;28;20067;-77
2021/08/21 04:23:40;;;;;;;7.85;4.47;;;;;;;11.26;95.91;95746.97;5112797;28;20046;-76
2021/08/21 04:26:06;;;;;;;9.05;3.92;;;;;;;11.22;95.71;95745.94;5111850;28;20036;-77
2021/08/21 04:28:32;;;;;;;10.70;4.40;;;;;;;11.28;95.81;95749.34;5112368;28;20096;-76
2021/08/21 04:30:58;;;;;;;6.55;4.50;;;;;;;11.31;95.57;95748.03;5110215;28;20036;-77
2021/08/21 04:33:24;;;;;;;10.45;4.38;;;;;;;11.36;95.50;95755.91;5106275;28;20047;-77
2021/08/21 04:35:50;;;;;;;8.27;4.80;;;;;;;11.34;95.15;95752.75;5112235;28;20051;-77
2021/08/21 04:38:16;;;;;;;7.57;4.60;;;;;;;11.42;94.26;95765.34;5110700;28;20040;-77
2021/08/21 04:40:44;;;;;;;7.30;4.57;;;;;;;11.41;94.54;95763.78;5100026;28;20405;-77
2021/08/21 04:43:10;;;;;;;10.98;4.15;;;;;;;11.43;94.68;95759.03;5108620;28;20050;-77
2021/08/21 04:45:36;;;;;;;9.25;4.82;;;;;;;11.40;94.86;95756.94;5111703;28;20125;-76
2021/08/21 04:48:02;;;;;;;8.98;4.38;;;;;;;11.45;93.81;95764.84;5112078;28;20044;-77
2021/08/21 04:50:28;;;;;;;10.88;4.45;;;;;;;11.48;93.58;95763.50;5099736;28;20064;-76
2021/08/21 04:52:53;;;;;;;7.00;4.40;;;;;;;11.53;93.44;95769.53;5112288;28;20046;-77
2021/08/21 04:55:19;;;;;;;6.97;4.70;;;;;;;11.53;93.57;95768.75;5115178;28;20138;-77
2021/08/21 04:57:44;;;;;;;8.40;4.55;;;;;;;11.55;93.69;95770.06;5116446;28;20184;-76
2021/08/21 05:00:10;;;;;;;7.20;4.50;;;;;;;11.66;93.57;95786.63;5102632;28;20055;-76
2021/08/21 05:02:36;;;;;;;7.45;4.60;;;;;;;11.54;94.15;95784.31;5114962;28;20039;-77
2021/08/21 05:05:01;;;;;;;9.80;4.25;;;;;;;11.55;94.28;95779.81;5111056;28;20421;-76
2021/08/21 05:07:27;;;;;;;8.40;4.90;;;;;;;11.50;94.41;95780.63;5114771;28;20054;-77
2021/08/21 05:09:52;;;;;;;9.65;4.50;;;;;;;11.48;95.17;95785.38;5112024;28;20043;-76
2021/08/21 05:12:18;;;;;;;8.15;4.40;;;;;;;11.50;94.88;95787.75;5102447;28;20051;-76
2021/08/21 05:14:43;;;;;;;8.75;4.68;;;;;;;11.59;94.71;95797.47;5096174;28;20047;-77
2021/08/21 05:17:09;;;;;;;7.40;4.60;;;;;;;11.56;95.40;95790.09;5115692;28;20047;-76
2021/08/21 05:19:40;;;;;;;10.25;4.57;;;;;;;11.64;95.73;95793.22;5114131;28;20043;-77
2021/08/21 05:22:39;;;;;;;7.65;4.53;;;;;;;11.79;95.22;95790.53;5106985;28;20519;-76
2021/08/21 05:25:05;;;;;;;9.13;4.97;;;;;;;11.84;96.22;95797.63;5101878;28;20069;-76
2021/08/21 05:27:31;;;;;;;9.32;5.10;;;;;;;12.04;96.00;95796.78;5115556;28;20489;-76
2021/08/21 05:29:56;;;;;;;10.27;5.20;;;;;;;12.22;95.49;95798.81;5104184;28;20051;-77
2021/08/21 05:32:22;;;;;;;7.38;4.70;;;;;;;12.44;94.61;95801.06;5113639;28;20035;-77
2021/08/21 05:34:48;;;;;;;9.40;4.80;;;;;;;12.65;94.24;95796.44;5113986;27;20408;-77
2021/08/21 05:37:13;;;;;;;9.52;5.40;;;;;;;12.84;93.23;95793.13;5112794;28;20135;-76
2021/08/21 05:39:39;;;;;;;9.65;5.38;;;;;;;13.04;93.48;95796.69;5113096;28;20118;-76
2021/08/21 05:42:04;;;;;;;9.27;5.45;;;;;;;13.22;93.30;95803.13;5114590;28;20051;-76
2021/08/21 05:44:30;;;;;;;9.38;5.93;;;;;;;13.20;94.71;95795.47;5111577;28;20095;-77
2021/08/21 05:46:55;;;;;;;8.73;5.43;;;;;;;13.32;94.67;95803.03;5111924;28;20051;-76
2021/08/21 05:49:21;;;;;;;9.98;5.70;;;;;;;13.61;93.62;95805.66;5110241;28;20052;-77
2021/08/21 05:51:46;;;;;;;9.65;5.47;;;;;;;13.78;92.61;95809.72;5108297;28;20043;-77
2021/08/21 05:54:12;;;;;;;11.05;6.00;;;;;;;13.93;92.63;95806.13;5112927;28;20044;-77
2021/08/21 05:56:37;;;;;;;11.13;5.43;;;;;;;13.93;92.31;95798.94;5112955;28;20039;-76
2021/08/21 05:59:03;;;;;;;8.27;5.32;;;;;;;14.07;92.11;95800.94;5113558;28;20486;-76
2021/08/21 06:01:28;;;;;;;8.65;5.65;;;;;;;14.17;92.00;95795.50;5101383;28;20214;-77
2021/08/21 06:03:54;;;;;;;8.23;5.43;;;;;;;14.26;90.64;95803.59;5110659;28;20488;-77
2021/08/21 06:06:19;;;;;;;9.32;5.57;;;;;;;14.31;91.42;95806.16;5109563;28;20071;-76
2021/08/21 06:08:45;;;;;;;8.43;5.22;;;;;;;14.37;90.85;95811.09;5112679;28;20110;-76
2021/08/21 06:11:11;;;;;;;8.43;5.55;;;;;;;14.45;89.83;95816.81;5107790;27;20101;-77
2021/08/21 06:13:36;;;;;;;8.10;5.28;;;;;;;14.51;90.45;95800.59;5093578;28;20032;-76
2021/08/21 06:16:03;;;;;;;8.82;5.18;;;;;;;14.55;90.40;95811.38;5105235;28;20039;-77
2021/08/21 06:18:30;;;;;;;9.13;5.75;;;;;;;14.51;90.43;95813.03;5114025;28;20071;-77
2021/08/21 06:20:56;;;;;;;9.77;5.57;;;;;;;14.62;90.91;95811.06;5107504;28;20097;-77
2021/08/21 06:23:21;;;;;;;8.07;5.50;;;;;;;14.57;90.90;95819.84;5094169;28;20052;-77
2021/08/21 06:25:47;;;;;;;9.65;5.63;;;;;;;14.76;90.90;95811.13;5101821;28;20036;-77
2021/08/21 06:28:13;;;;;;;11.43;5.80;;;;;;;14.92;90.50;95812.44;5111475;28;20074;-77
2021/08/21 06:30:39;;;;;;;8.73;5.30;;;;;;;14.99;90.18;95806.78;5109514;27;20048;-76
2021/08/21 06:33:04;;;;;;;10.68;5.53;;;;;;;15.06;89.88;95810.63;5110797;28;20051;-76
2021/08/21 06:35:30;;;;;;;8.73;5.65;;;;;;;15.18;89.28;95809.38;5109504;28;20040;-77
2021/08/21 06:37:55;;;;;;;10.93;5.20;;;;;;;15.27;89.27;95810.31;5110799;28;20039;-77
2021/08/21 06:40:21;;;;;;;7.95;5.70;;;;;;;15.38;88.71;95813.56;5108948;28;20118;-77
2021/08/21 06:42:46;;;;;;;10.02;5.40;;;;;;;15.30;89.57;95817.69;5105616;28;20071;-77
2021/08/21 06:45:12;;;;;;;9.13;5.68;;;;;;;15.28;90.34;95817.16;5109066;28;20458;-77
2021/08/21 06:47:37;;;;;;;8.15;5.32;;;;;;;15.32;89.70;95817.38;5105703;28;20044;-77
2021/08/21 06:50:05;;;;;;;10.55;6.10;;;;;;;15.40;90.00;95809.53;5104276;27;20078;-76
2021/08/21 06:52:31;;;;;;;11.05;5.20;;;;;;;15.29;90.95;95813.44;5093433;28;20043;-77
2021/08/21 06:54:56;;;;;;;8.15;5.63;;;;;;;15.39;90.90;95818.56;5101478;28;20040;-77
2021/08/21 06:57:22;;;;;;;8.40;5.70;;;;;;;15.50;90.94;95813.06;5109404;27;20488;-76
2021/08/21 06:59:47;;;;;;;9.18;5.57;;;;;;;15.57;91.13;95819.59;5110406;28;20087;-76
2021/08/21 07:02:13;;;;;;;8.68;5.45;;;;;;;15.50;91.37;95815.72;5092682;28;20040;-76
2021/08/21 07:04:40;;;;;;;9.75;5.72;;;;;;;15.46;92.17;95817.38;5110435;28;20044;-77
2021/08/21 07:07:07;;;;;;;8.60;6.10;;;;;;;15.47;93.04;95821.63;5106260;28;20054;-77
2021/08/21 07:09:33;;;;;;;9.52;5.47;;;;;;;15.88;90.12;95812.94;5102154;28;20093;-77
2021/08/21 07:11:59;;;;;;;9.50;5.75;;;;;;;16.31;87.50;95819.78;5094795;28;20048;-77
2021/08/21 07:14:25;;;;;;;7.90;5.28;;;;;;;16.41;88.06;95820.34;5099810;28;20566;-76
2021/08/21 07:16:51;;;;;;;9.95;5.47;;;;;;;16.45;86.17;95816.00;5109536;28;20039;-77
2021/08/21 07:19:17;;;;;;;8.18;5.45;;;;;;;16.80;85.25;95818.16;5103584;28;20040;-76
2021/08/21 07:21:42;;;;;;;10.23;5.22;;;;;;;16.73;85.16;95815.91;5109571;28;20046;-77
2021/08/21 07:24:08;;;;;;;8.10;5.18;;;;;;;16.84;84.92;95816.47;5108718;28;20039;-76
2021/08/21 07:26:33;;;;;;;7.65;5.38;;;;;;;16.78;86.75;95813.16;5108756;28;20036;-77
2021/08/21 07:28:59;;;;;;;8.80;5.63;;;;;;;16.83;86.31;95819.44;5098223;28;20041;-77
2021/08/21 07:31:24;;;;;;;8.65;5.88;;;;;;;16.92;84.70;95820.28;5109573;27;20492;-77
2021/08/21 07:33:50;;;;;;;8.75;5.35;;;;;;;16.92;83.74;95818.44;5103755;28;20115;-77
2021/08/21 07:36:15;;;;;;;9.52;5.63;;;;;;;16.86;84.93;95821.47;5108400;28;20050;-77
2021/08/21 07:38:41;;;;;;;7.95;5.40;;;;;;;17.03;83.87;95824.28;5107194;28;20040;-77
2021/08/21 07:41:06;;;;;;;8.02;5.53;;;;;;;16.83;85.48;95814.91;5108951;28;20039;-75
2021/08/21 07:43:32;;;;;;;9.52;5.40;;;;;;;17.26;83.64;95813.63;5107255;28;20477;-76
2021/08/21 07:45:58;;;;;;;8.40;5.53;;;;;;;17.11;84.57;95810.28;5107714;28;20405;-76
2021/08/21 07:48:23;;;;;;;8.27;5.25;;;;;;;17.02;85.26;95821.94;5107661;28;20458;-77
2021/08/21 07:50:49;;;;;;;9.73;5.45;;;;;;;17.00;86.34;95819.59;5105916;28;20118;-79
2021/08/21 07:53:14;;;;;;;11.68;5.60;;;;;;;17.62;81.04;95812.72;5108753;28;20040;-77
2021/08/21 07:55:40;;;;;;;10.32;5.43;;;;;;;17.66;83.08;95813.69;5109415;28;20096;-79
2021/08/21 07:58:05;;;;;;;10.07;5.25;;;;;;;17.92;79.49;95810.34;5106452;28;20067;-78
2021/08/21 08:00:32;;;;;;;8.85;5.93;;;;;;;17.70;82.87;95809.31;5106885;28;20066;-77
2021/08/21 08:02:58;;;;;;;10.15;5.25;;;;;;;17.65;84.54;95807.56;5105304;28;20084;-77
2021/08/21 08:05:23;;;;;;;7.32;5.28;;;;;;;17.69;80.15;95807.75;5106767;28;20040;-78
2021/08/21 08:07:48;;;;;;;8.13;5.45;;;;;;;17.61;82.23;95811.13;5108602;28;20039;-77
2021/08/21 08:10:14;;;;;;;11.40;6.55;;;;;;;17.62;84.46;95818.81;5104479;28;20063;-79
2021/08/21 08:12:40;;;;;;;9.07;5.30;;;;;;;18.02;80.75;95815.41;5113098;28;20040;-77
2021/08/21 08:15:06;;;;;;;8.45;5.20;;;;;;;18.33;79.19;95819.84;5094857;28;20059;-76
2021/08/21 08:17:31;;;;;;;9.02;5.07;;;;;;;18.23;79.55;95823.59;5106412;28;20047;-80
2021/08/21 08:19:57;;;;;;;8.32;5.88;;;;;;;18.08;80.83;95824.81;5100118;27;20062;-77
2021/08/21 08:22:24;;;;;;;8.98;5.63;;;;;;;18.23;78.56;95825.47;5102296;28;20462;-86
2021/08/21 08:24:49;;;;;;;7.88;5.60;;;;;;;18.17;80.64;95828.28;5105762;28;20056;-76
2021/08/21 08:27:15;;;;;;;9.98;5.30;;;;;;;18.08;81.62;95832.78;5109817;27;20113;-75
2021/08/21 08:29:41;;;;;;;7.38;5.20;;;;;;;18.07;82.07;95828.56;5110734;27;20558;-77
2021/08/21 08:32:07;;;;;;;8.60;5.47;;;;;;;18.13;80.67;95832.66;5105147;28;20036;-80
2021/08/21 08:34:32;;;;;;;9.52;5.80;;;;;;;18.35;78.22;95823.75;5100159;28;20084;-77
2021/08/21 08:36:58;;;;;;;7.97;5.22;;;;;;;18.80;78.41;95827.25;5106333;28;20047;-75
2021/08/21 08:39:26;;;;;;;8.20;5.40;;;;;;;19.12;77.65;95823.34;5108986;28;20118;-76
2021/08/21 08:41:52;;;;;;;8.57;4.97;;;;;;;19.62;72.51;95834.50;5109065;27;20548;-77
2021/08/21 08:44:22;;;;;;;7.25;5.35;;;;;;;19.52;75.62;95831.09;5103610;28;20040;-82
2021/08/21 08:46:48;;;;;;;9.10;5.18;;;;;;;19.44;76.45;95829.22;5104984;28;20512;-81
2021/08/21 08:49:15;;;;;;;9.30;5.38;;;;;;;19.41;76.13;95832.53;5106036;28;20040;-76
2021/08/21 08:51:42;;;;;;;9.48;5.40;;;;;;;19.19;77.08;95828.97;5111320;28;20051;-76
2021/08/21 08:54:07;;;;;;;11.18;5.47;;;;;;;19.61;75.26;95832.94;5106978;28;20500;-77
2021/08/21 08:56:33;;;;;;;12.38;5.35;;;;;;;19.78;75.92;95832.84;5110083;28;20047;-77
2021/08/21 08:58:59;;;;;;;7.90;5.45;;;;;;;19.93;74.60;95828.16;5109914;28;20039;-77
2021/08/21 09:01:24;;;;;;;8.82;5.70;;;;;;;20.15;72.80;95830.53;5105565;28;20051;-76
2021/08/21 09:03:50;;;;;;;9.70;5.28;;;;;;;20.39;72.74;95834.47;5096395;28;20055;-80
2021/08/21 09:06:33;;;;;;;10.10;5.40;;;;;;;20.66;70.72;95832.41;5101190;28;20047;-80
2021/08/21 09:09:14;;;;;;;9.45;5.20;;;;;;;20.74;70.70;95828.91;5110947;27;20039;-80
2021/08/21 09:11:49;;;;;;;9.07;5.68;;;;;;;20.48;73.05;95827.19;5107576;28;20580;-80
2021/08/21 09:14:20;;;;;;;10.60;5.53;;;;;;;20.89;70.17;95828.31;5105505;28;20507;-79
2021/08/21 09:16:45;;;;;;;8.02;5.07;;;;;;;20.97;68.85;95828.56;5111693;28;20424;-76
2021/08/21 09:19:11;;;;;;;8.60;5.18;;;;;;;21.01;68.57;95821.47;5109571;28;20118;-76
2021/08/21 09:21:37;;;;;;;10.75;5.47;;;;;;;21.09;66.69;95828.63;5111564;27;20056;-77
2021/08/21 09:24:23;;;;;;;7.82;5.10;;;;;;;21.44;68.02;95822.91;5104985;28;20044;-76
2021/08/21 09:26:48;;;;;;;7.22;5.03;;;;;;;21.60;65.09;95834.56;5105812;28;20107;-76
2021/08/21 09:29:26;;;;;;;10.35;5.30;;;;;;;21.84;63.87;95822.34;5115007;27;20040;-74
2021/08/21 09:32:04;;;;;;;7.70;5.13;;;;;;;21.87;63.43;95818.97;5098897;28;20052;-76
2021/08/21 09:34:30;;;;;;;7.22;5.60;;;;;;;21.85;65.05;95821.22;5099545;27;20074;-78
2021/08/21 09:36:56;;;;;;;7.95;4.95;;;;;;;21.78;67.17;95821.78;5105104;28;20048;-80
2021/08/21 09:39:34;;;;;;;7.22;5.20;;;;;;;22.16;63.47;95819.88;5100083;28;20575;-77
2021/08/21 09:42:03;;;;;;;8.68;5.63;;;;;;;22.12;63.42;95818.97;5105283;27;20047;-77
2021/08/21 09:44:30;;;;;;;7.65;4.88;;;;;;;22.21;63.41;95819.66;5099968;27;20046;-78
2021/08/21 09:47:23;;;;;;;7.65;5.47;;;;;;;22.24;61.50;95821.66;5105796;28;20558;-78
2021/08/21 09:49:49;;;;;;;7.22;4.90;;;;;;;22.18;59.08;95806.91;5096605;28;20043;-77
2021/08/21 09:52:16;;;;;;;7.38;4.97;;;;;;;22.20;58.61;95812.72;5105592;28;20078;-79
2021/08/21 09:54:45;;;;;;;8.57;4.90;;;;;;;22.34;59.37;95820.44;5096605;28;20062;-79
2021/08/21 09:57:19;;;;;;;9.18;4.45;;;;;;;22.34;57.70;95811.59;5107034;28;20496;-80
2021/08/21 09:59:44;;;;;;;;;;;;;;;22.54;59.20;95808.00;5102020;28;20070;-77
2021/08/21 10:02:12;;;;;;;6.72;4.85;;;;;;;22.62;58.28;95809.75;5103274;28;20368;-76
2021/08/21 10:04:41;;;;;;;7.20;4.95;;;;;;;22.57;59.33;95810.00;5106193;28;20042;-78
2021/08/21 10:07:09;;;;;;;8.88;5.03;;;;;;;22.60;62.46;95806.66;5103450;28;20131;-78
2021/08/21 10:09:38;;;;;;;7.43;4.90;;;;;;;23.20;58.68;95803.28;5109913;28;20074;-77
2021/08/21 10:12:06;;;;;;;8.00;5.03;;;;;;;23.39;56.37;95801.84;5110557;27;20051;-77
2021/08/21 10:14:32;;;;;;;7.10;5.10;;;;;;;23.33;58.45;95810.19;5105497;28;20085;-77
2021/08/21 10:16:58;;;;;;;7.40;4.72;;;;;;;23.65;57.35;95799.44;5102888;28;20052;-79
2021/08/21 10:19:25;;;;;;;6.50;4.88;;;;;;;23.95;58.54;95795.53;5104451;28;20390;-76
2021/08/21 10:21:55;;;;;;;7.28;4.82;;;;;;;23.88;57.61;95806.94;5109675;28;20059;-76
2021/08/21 10:24:30;;;;;;;8.95;4.75;;;;;;;24.41;56.69;95806.56;5108782;28;20125;-77
2021/08/21 10:27:10;;;;;;;8.40;5.32;;;;;;;24.70;55.09;95802.59;5103634;27;20055;-78
2021/08/21 10:29:36;;;;;;;8.52;5.28;;;;;;;24.43;54.54;95798.16;5108829;28;20584;-77
2021/08/21 10:32:03;;;;;;;10.13;5.13;;;;;;;24.24;52.07;95797.00;5103250;27;20052;-76
2021/08/21 10:34:52;;;;;;;8.65;5.35;;;;;;;24.00;54.00;95798.75;5110675;28;20107;-77
2021/08/21 10:37:35;;;;;;;6.93;4.90;;;;;;;25.01;52.82;95800.91;5111470;27;20035;-76
2021/08/21 10:40:27;;;;;;;7.78;5.10;;;;;;;25.15;52.18;95799.59;5108572;28;20063;-74
2021/08/21 10:42:53;;;;;;;6.43;4.80;;;;;;;25.68;50.48;95794.38;5109846;28;20043;-77
2021/08/21 10:45:52;;;;;;;9.40;5.53;;;;;;;26.01;50.00;95790.28;5111846;28;20111;-77
2021/08/21 10:48:25;;;;;;;7.68;5.25;;;;;;;25.72;51.51;95789.81;5085783;28;20055;-78
2021/08/21 10:50:51;;;;;;;7.93;5.17;;;;;;;26.55;47.95;95790.25;5107444;28;20055;-78
2021/08/21 10:53:26;;;;;;;9.50;5.28;;;;;;;26.63;45.48;95792.66;5097074;28;20036;-78
2021/08/21 10:55:53;;;;;;;8.77;4.95;;;;;;;26.64;46.07;95788.06;5097816;28;20047;-77
2021/08/21 10:58:24;;;;;;;7.57;5.13;;;;;;;26.29;46.39;95783.75;5108328;28;20040;-76
2021/08/21 11:00:58;;;;;;;7.13;5.15;;;;;;;27.21;44.49;95781.75;5108184;28;20035;-77
2021/08/21 11:03:24;;;;;;;7.78;5.18;;;;;;;27.13;45.00;95787.09;5105382;28;20035;-77
2021/08/21 11:06:03;;;;;;;6.45;4.82;;;;;;;26.13;45.01;95791.22;5106120;28;20036;-77
2021/08/21 11:08:35;;;;;;;7.53;5.00;;;;;;;26.87;46.38;95789.91;5109046;28;20039;-77
2021/08/21 11:11:18;;;;;;;8.23;5.25;;;;;;;28.41;42.23;95784.28;5111185;28;20044;-77
2021/08/21 11:14:22;;;;;;;6.60;5.13;;;;;;;27.93;43.93;95782.38;5106530;28;20089;-77
2021/08/21 11:17:30;;;;;;;6.65;5.13;;;;;;;27.62;43.53;95789.88;5104768;28;20055;-77
2021/08/21 11:19:56;;;;;;;9.45;4.80;;;;;;;28.04;45.03;95783.28;5107424;28;20051;-78
2021/08/21 11:22:27;;;;;;;7.88;5.28;;;;;;;28.63;42.25;95779.75;5115881;28;20548;-77
2021/08/21 11:24:52;;;;;;;8.15;4.85;;;;;;;28.64;39.83;95781.31;5116462;27;20039;-76
2021/08/21 11:27:24;;;;;;;6.80;4.93;;;;;;;30.12;38.56;95779.59;5102445;28;20070;-77
2021/08/21 11:30:05;;;;;;;8.25;5.22;;;;;;;29.98;40.59;95776.91;5109570;28;20067;-77
2021/08/21 11:32:40;;;;;;;6.03;4.50;;;;;;;30.39;37.78;95765.59;5113897;28;20035;-77